Time;durP1;ratioP1;P1;durP2;ratioP2;P2;SDS_P1;SDS_P2;PMS_P1;PMS_P2;Temp;Humidity;BMP_temperature;BMP_pressure;BME280_temperature;BME280_humidity;BME280_pressure;Samples;Min_cycle;Max_cycle;Signal;HPM_P1;HPM_P2
2023/10/27 00:01:45;;;;;;;2.90;1.98;;;;;;;;;;5043920;28;20383;-83
2023/10/27 00:04:11;;;;;;;2.58;2.20;;;;;;;;;;5052293;28;20482;-82
2023/10/27 00:06:37;;;;;;;3.45;2.45;;;;;;;;;;5055088;28;20384;-82
2023/10/27 00:09:03;;;;;;;3.27;2.70;;;;;;;;;;5055416;28;20393;-82
2023/10/27 00:11:29;;;;;;;3.50;2.45;;;;;;;;;;5036814;28;20751;-82
2023/10/27 00:13:55;;;;;;;2.75;1.90;;;;;;;;;;5054871;28;20427;-80
2023/10/27 00:16:22;;;;;;;2.53;1.90;;;;;;;;;;5054672;28;20841;-80
2023/10/27 00:18:48;;;;;;;2.20;1.97;;;;;;;;;;5047084;28;20396;-80
2023/10/27 00:21:14;;;;;;;2.10;1.90;;;;;;;;;;5054626;28;20392;-80
2023/10/27 00:23:40;;;;;;;1.95;1.70;;;;;;;;;;5054937;28;20390;-80
2023/10/27 00:26:06;;;;;;;1.98;1.70;;;;;;;;;;5054503;28;20435;-82
2023/10/27 00:28:32;;;;;;;2.10;1.67;;;;;;;;;;5054283;28;20393;-83
2023/10/27 00:31:01;;;;;;;1.98;1.38;;;;;;;;;;5054474;28;20385;-82
2023/10/27 00:33:27;;;;;;;1.60;1.50;;;;;;;;;;5040681;28;20385;-83
2023/10/27 00:35:53;;;;;;;2.95;1.40;;;;;;;;;;5054026;28;20439;-82
2023/10/27 00:38:19;;;;;;;2.40;1.33;;;;;;;;;;5055181;28;20385;-80
2023/10/27 00:40:45;;;;;;;1.50;1.40;;;;;;;;;;5055227;28;20830;-80
2023/10/27 00:43:16;;;;;;;2.45;1.42;;;;;;;;;;5054718;28;20419;-80
2023/10/27 00:45:43;;;;;;;1.80;1.40;;;;;;;;;;5055102;28;20425;-80
2023/10/27 00:48:09;;;;;;;2.88;2.00;;;;;;;;;;5055335;28;20390;-80
2023/10/27 00:50:35;;;;;;;3.83;2.80;;;;;;;;;;5054727;28;20810;-80
2023/10/27 00:53:01;;;;;;;5.25;3.03;;;;;;;;;;5055233;28;20390;-80
2023/10/27 00:55:27;;;;;;;3.53;2.58;;;;;;;;;;5055774;28;20436;-80
2023/10/27 00:57:53;;;;;;;4.05;2.90;;;;;;;;;;5055421;28;20797;-80
2023/10/27 01:00:19;;;;;;;5.03;3.42;;;;;;;;;;5054949;28;20412;-80
2023/10/27 01:02:45;;;;;;;5.00;3.40;;;;;;;;;;5055035;28;20388;-80
2023/10/27 01:05:11;;;;;;;3.97;3.30;;;;;;;;;;5054456;28;20414;-80
2023/10/27 01:07:38;;;;;;;3.97;3.00;;;;;;;;;;5054769;28;20475;-80
2023/10/27 01:10:04;;;;;;;3.40;2.75;;;;;;;;;;5054757;28;20468;-80
2023/10/27 01:12:31;;;;;;;2.97;2.60;;;;;;;;;;5054771;28;20719;-80
2023/10/27 01:14:57;;;;;;;2.78;2.40;;;;;;;;;;5055085;28;20387;-80
2023/10/27 01:17:23;;;;;;;2.92;2.35;;;;;;;;;;5054901;28;20461;-80
2023/10/27 01:19:49;;;;;;;2.23;1.77;;;;;;;;;;5054171;28;20373;-80
2023/10/27 01:22:15;;;;;;;1.92;1.73;;;;;;;;;;5054268;28;20416;-80
2023/10/27 01:24:41;;;;;;;2.25;1.60;;;;;;;;;;5061011;28;20421;-80
2023/10/27 01:27:07;;;;;;;2.13;1.50;;;;;;;;;;5054795;28;20394;-80
2023/10/27 01:29:33;;;;;;;1.77;1.30;;;;;;;;;;5051824;28;20370;-82
2023/10/27 01:31:59;;;;;;;1.45;1.10;;;;;;;;;;5051052;28;20381;-82
2023/10/27 01:34:25;;;;;;;1.42;1.20;;;;;;;;;;5050719;28;20385;-82
2023/10/27 01:36:51;;;;;;;2.13;1.48;;;;;;;;;;5051017;28;20386;-80
2023/10/27 01:39:18;;;;;;;2.10;1.40;;;;;;;;;;5050808;28;20396;-80
2023/10/27 01:41:44;;;;;;;2.47;1.35;;;;;;;;;;5051036;28;20850;-80
2023/10/27 01:44:10;;;;;;;1.40;1.17;;;;;;;;;;5051216;28;20496;-80
2023/10/27 01:46:36;;;;;;;2.20;1.35;;;;;;;;;;5051429;28;20405;-80
2023/10/27 01:49:03;;;;;;;1.73;1.00;;;;;;;;;;5054517;28;20839;-80
2023/10/27 01:51:29;;;;;;;1.92;1.23;;;;;;;;;;5054788;28;20907;-80
2023/10/27 01:53:55;;;;;;;1.85;1.30;;;;;;;;;;5054961;28;20425;-80
2023/10/27 01:56:21;;;;;;;1.98;1.35;;;;;;;;;;5055257;28;20480;-80
2023/10/27 01:58:47;;;;;;;1.52;1.42;;;;;;;;;;5054825;28;20382;-80
2023/10/27 02:01:14;;;;;;;1.98;1.45;;;;;;;;;;5054595;28;20389;-80
2023/10/27 02:03:40;;;;;;;1.30;1.20;;;;;;;;;;5055606;28;20385;-80
2023/10/27 02:06:06;;;;;;;2.40;1.75;;;;;;;;;;5055613;28;20735;-80
2023/10/27 02:08:35;;;;;;;2.95;2.65;;;;;;;;;;5055493;28;20377;-80
2023/10/27 02:11:01;;;;;;;3.38;2.65;;;;;;;;;;5055342;28;20389;-80
2023/10/27 02:13:28;;;;;;;2.50;2.30;;;;;;;;;;5044648;28;20397;-81
2023/10/27 02:15:54;;;;;;;2.50;2.00;;;;;;;;;;5050967;28;20401;-81
2023/10/27 02:18:20;;;;;;;2.70;2.47;;;;;;;;;;5042324;28;20408;-81
2023/10/27 02:20:47;;;;;;;2.60;2.20;;;;;;;;;;5054292;28;20400;-81
2023/10/27 02:23:14;;;;;;;2.85;2.50;;;;;;;;;;5053672;28;20388;-81
2023/10/27 02:25:40;;;;;;;2.73;2.40;;;;;;;;;;5056210;28;20495;-81
2023/10/27 02:28:06;;;;;;;3.30;2.95;;;;;;;;;;5055343;28;20393;-81
2023/10/27 02:30:32;;;;;;;2.80;2.60;;;;;;;;;;5055799;28;20774;-81
2023/10/27 02:32:59;;;;;;;3.63;3.00;;;;;;;;;;5055539;28;20842;-81
2023/10/27 02:35:25;;;;;;;4.95;3.20;;;;;;;;;;5055625;28;20854;-81
2023/10/27 02:37:52;;;;;;;3.33;3.03;;;;;;;;;;5055766;28;20431;-81
2023/10/27 02:40:18;;;;;;;2.75;2.55;;;;;;;;;;5055998;28;20381;-81
2023/10/27 02:42:44;;;;;;;4.00;3.10;;;;;;;;;;5055842;28;20887;-81
2023/10/27 02:45:10;;;;;;;3.33;3.00;;;;;;;;;;5056019;28;20526;-81
2023/10/27 02:47:36;;;;;;;3.67;3.37;;;;;;;;;;5055852;28;20392;-81
2023/10/27 02:50:02;;;;;;;3.47;3.17;;;;;;;;;;5056136;28;20386;-81
2023/10/27 02:52:28;;;;;;;3.30;2.90;;;;;;;;;;5056819;28;20385;-81
2023/10/27 02:54:54;;;;;;;4.10;3.70;;;;;;;;;;5056512;28;20386;-81
2023/10/27 02:57:20;;;;;;;4.90;4.00;;;;;;;;;;5056049;28;20400;-81
2023/10/27 02:59:46;;;;;;;4.50;4.10;;;;;;;;;;5055841;28;20378;-81
2023/10/27 03:02:12;;;;;;;4.35;3.88;;;;;;;;;;5037931;28;20397;-81
2023/10/27 03:04:38;;;;;;;4.55;4.05;;;;;;;;;;5055808;28;20421;-81
2023/10/27 03:07:05;;;;;;;4.22;3.38;;;;;;;;;;5056341;28;20381;-81
2023/10/27 03:09:31;;;;;;;3.88;3.40;;;;;;;;;;5056354;28;20401;-81
2023/10/27 03:11:57;;;;;;;3.00;2.73;;;;;;;;;;5037696;28;20739;-81
2023/10/27 03:14:22;;;;;;;3.83;3.00;;;;;;;;;;5056619;28;20472;-81
2023/10/27 03:16:48;;;;;;;3.50;3.20;;;;;;;;;;5056103;28;20397;-81
2023/10/27 03:19:14;;;;;;;3.80;3.40;;;;;;;;;;5056406;28;20416;-81
2023/10/27 03:21:40;;;;;;;3.28;2.97;;;;;;;;;;5056645;28;20884;-81
2023/10/27 03:24:07;;;;;;;3.17;2.97;;;;;;;;;;5056503;28;20409;-81
2023/10/27 03:26:33;;;;;;;3.50;3.20;;;;;;;;;;5055871;28;20473;-81
2023/10/27 03:28:59;;;;;;;3.50;3.20;;;;;;;;;;5055116;28;20406;-81
2023/10/27 03:31:25;;;;;;;3.10;2.90;;;;;;;;;;5059013;28;20385;-81
2023/10/27 03:33:51;;;;;;;3.63;3.40;;;;;;;;;;5056248;28;20874;-81
2023/10/27 03:36:17;;;;;;;3.92;3.58;;;;;;;;;;5068045;28;20395;-81
2023/10/27 03:38:43;;;;;;;4.37;4.07;;;;;;;;;;5055915;28;20405;-81
2023/10/27 03:41:09;;;;;;;3.97;3.65;;;;;;;;;;5056034;28;20778;-81
2023/10/27 03:43:35;;;;;;;5.63;3.97;;;;;;;;;;5056473;28;20413;-81
2023/10/27 03:46:01;;;;;;;4.40;4.10;;;;;;;;;;5055620;28;20536;-81
2023/10/27 03:48:28;;;;;;;4.20;3.80;;;;;;;;;;5059342;28;20431;-81
2023/10/27 03:50:55;;;;;;;4.70;4.03;;;;;;;;;;5055916;28;20386;-81
2023/10/27 03:53:21;;;;;;;3.97;3.67;;;;;;;;;;5056338;28;20408;-81
2023/10/27 03:55:53;;;;;;;3.20;2.90;;;;;;;;;;5055165;28;20386;-81
2023/10/27 03:58:19;;;;;;;4.05;3.75;;;;;;;;;;5055262;28;20869;-81
2023/10/27 04:00:45;;;;;;;3.20;2.90;;;;;;;;;;5055893;28;20389;-81
2023/10/27 04:03:12;;;;;;;3.10;2.80;;;;;;;;;;5056273;28;20389;-81
2023/10/27 04:05:38;;;;;;;2.60;2.40;;;;;;;;;;5055466;28;20894;-81
2023/10/27 04:08:07;;;;;;;2.70;2.50;;;;;;;;;;5055347;28;20373;-81
2023/10/27 04:10:34;;;;;;;3.42;3.13;;;;;;;;;;5055080;28;20443;-81
2023/10/27 04:13:00;;;;;;;4.63;2.75;;;;;;;;;;5055938;28;20394;-81
2023/10/27 04:15:27;;;;;;;2.67;2.47;;;;;;;;;;5055792;28;20393;-81
2023/10/27 04:17:53;;;;;;;3.38;3.00;;;;;;;;;;5055097;28;20443;-81
2023/10/27 04:20:19;;;;;;;3.90;2.70;;;;;;;;;;5055343;28;20377;-81
2023/10/27 04:22:45;;;;;;;2.60;2.40;;;;;;;;;;5055370;28;20396;-81
2023/10/27 04:25:12;;;;;;;2.58;2.38;;;;;;;;;;5055355;28;20417;-81
2023/10/27 04:27:38;;;;;;;2.65;2.42;;;;;;;;;;5055964;28;20450;-81
2023/10/27 04:30:07;;;;;;;2.78;2.58;;;;;;;;;;5064206;28;20789;-81
2023/10/27 04:32:33;;;;;;;2.90;2.50;;;;;;;;;;5062435;28;20396;-81
2023/10/27 04:34:59;;;;;;;2.53;2.33;;;;;;;;;;5055530;28;20404;-81
2023/10/27 04:37:27;;;;;;;2.40;2.20;;;;;;;;;;5052456;28;20381;-81
2023/10/27 04:39:54;;;;;;;2.58;2.38;;;;;;;;;;5051962;28;20390;-81
2023/10/27 04:42:20;;;;;;;2.20;1.93;;;;;;;;;;5034031;28;20393;-81
2023/10/27 04:44:46;;;;;;;2.42;2.20;;;;;;;;;;5052215;28;20413;-81
2023/10/27 04:47:12;;;;;;;2.40;2.05;;;;;;;;;;5052490;28;20929;-81
2023/10/27 04:49:38;;;;;;;2.88;2.13;;;;;;;;;;5053912;28;20381;-81
2023/10/27 04:52:05;;;;;;;2.03;1.83;;;;;;;;;;5053949;28;20747;-81
2023/10/27 04:54:34;;;;;;;1.88;1.75;;;;;;;;;;5053225;28;20486;-81
2023/10/27 04:57:00;;;;;;;2.35;2.03;;;;;;;;;;5054148;28;20385;-81
2023/10/27 04:59:26;;;;;;;2.50;2.03;;;;;;;;;;5053287;28;20389;-81
2023/10/27 05:01:52;;;;;;;2.95;2.40;;;;;;;;;;5053892;28;20847;-80
2023/10/27 05:04:18;;;;;;;2.45;2.15;;;;;;;;;;5053639;28;20410;-81
2023/10/27 05:06:44;;;;;;;2.90;2.10;;;;;;;;;;5054532;28;20393;-81
2023/10/27 05:09:12;;;;;;;2.50;2.30;;;;;;;;;;5053583;28;20412;-80
2023/10/27 05:11:39;;;;;;;2.40;2.20;;;;;;;;;;5053656;28;20870;-81
2023/10/27 05:14:06;;;;;;;2.92;2.63;;;;;;;;;;5053765;28;20388;-80
2023/10/27 05:16:32;;;;;;;4.03;2.92;;;;;;;;;;5054960;28;20440;-81
2023/10/27 05:18:58;;;;;;;4.15;3.08;;;;;;;;;;5054220;28;20401;-81
2023/10/27 05:21:26;;;;;;;3.38;2.97;;;;;;;;;;5052910;28;20374;-81
2023/10/27 05:23:56;;;;;;;3.72;2.60;;;;;;;;;;5053226;28;20381;-80
2023/10/27 05:26:22;;;;;;;3.00;2.03;;;;;;;;;;5053235;28;20929;-81
2023/10/27 05:28:48;;;;;;;3.30;1.80;;;;;;;;;;5053833;28;20381;-81
2023/10/27 05:31:14;;;;;;;1.70;1.60;;;;;;;;;;5053635;28;20720;-81
2023/10/27 05:33:39;;;;;;;2.53;1.30;;;;;;;;;;5053725;28;20410;-81
2023/10/27 05:36:06;;;;;;;1.17;0.90;;;;;;;;;;5053996;28;20788;-81
2023/10/27 05:38:31;;;;;;;0.82;0.73;;;;;;;;;;5053330;28;20399;-81
2023/10/27 05:40:57;;;;;;;0.88;0.77;;;;;;;;;;5055106;28;20413;-80
2023/10/27 05:43:23;;;;;;;1.05;0.75;;;;;;;;;;5054036;28;20393;-81
2023/10/27 05:45:49;;;;;;;1.50;1.00;;;;;;;;;;5053972;28;20424;-81
2023/10/27 05:48:15;;;;;;;0.82;0.60;;;;;;;;;;5054229;28;20739;-81
2023/10/27 05:50:42;;;;;;;0.80;0.60;;;;;;;;;;5054657;28;20439;-80
2023/10/27 05:53:08;;;;;;;1.00;0.70;;;;;;;;;;5053850;28;20381;-80
2023/10/27 05:55:34;;;;;;;2.10;0.50;;;;;;;;;;5053996;28;20889;-80
2023/10/27 05:58:00;;;;;;;0.60;0.60;;;;;;;;;;5054258;28;20377;-80
2023/10/27 06:00:26;;;;;;;0.55;0.50;;;;;;;;;;5053931;28;20391;-80
2023/10/27 06:02:54;;;;;;;0.43;0.43;;;;;;;;;;5053829;28;20381;-80
2023/10/27 06:05:21;;;;;;;1.00;0.50;;;;;;;;;;5054828;28;20508;-80
2023/10/27 06:07:47;;;;;;;1.63;0.60;;;;;;;;;;5054679;28;20479;-80
2023/10/27 06:10:13;;;;;;;0.70;0.50;;;;;;;;;;5054098;28;20400;-80
2023/10/27 06:12:39;;;;;;;1.53;0.50;;;;;;;;;;5053813;28;20421;-80
2023/10/27 06:15:05;;;;;;;0.88;0.50;;;;;;;;;;5054344;28;20412;-81
2023/10/27 06:17:32;;;;;;;0.73;0.40;;;;;;;;;;5054471;28;20393;-80
2023/10/27 06:19:59;;;;;;;0.40;0.40;;;;;;;;;;5054433;28;20712;-80
2023/10/27 06:22:25;;;;;;;0.50;0.50;;;;;;;;;;5054238;28;20453;-80
2023/10/27 06:24:51;;;;;;;0.30;0.30;;;;;;;;;;5054287;28;20506;-80
2023/10/27 06:27:17;;;;;;;0.47;0.40;;;;;;;;;;5054081;28;20854;-80
2023/10/27 06:29:43;;;;;;;1.20;0.40;;;;;;;;;;5054092;28;20394;-80
2023/10/27 06:32:09;;;;;;;1.67;0.43;;;;;;;;;;5053898;28;20413;-80
2023/10/27 06:34:35;;;;;;;0.90;0.50;;;;;;;;;;5056626;28;20902;-80
2023/10/27 06:37:01;;;;;;;0.77;0.52;;;;;;;;;;5057575;28;20451;-80
2023/10/27 06:39:28;;;;;;;0.63;0.50;;;;;;;;;;5058195;28;20461;-80
2023/10/27 06:41:54;;;;;;;0.47;0.35;;;;;;;;;;5057475;28;20385;-80
2023/10/27 06:44:20;;;;;;;0.88;0.50;;;;;;;;;;5057918;28;20409;-81
2023/10/27 06:46:46;;;;;;;0.43;0.38;;;;;;;;;;5057764;28;20397;-80
2023/10/27 06:49:15;;;;;;;0.60;0.37;;;;;;;;;;5057862;28;20462;-80
2023/10/27 06:51:41;;;;;;;0.90;0.60;;;;;;;;;;5058104;28;20393;-81
2023/10/27 06:54:07;;;;;;;1.03;0.50;;;;;;;;;;5057179;28;20879;-81
2023/10/27 06:56:33;;;;;;;1.23;0.50;;;;;;;;;;5057283;28;20793;-80
2023/10/27 06:58:59;;;;;;;1.70;0.50;;;;;;;;;;5057380;28;20431;-80
2023/10/27 07:01:25;;;;;;;1.67;0.60;;;;;;;;;;5057649;28;20386;-80
2023/10/27 07:03:51;;;;;;;0.63;0.30;;;;;;;;;;5057602;28;20849;-81
2023/10/27 07:06:18;;;;;;;2.20;0.30;;;;;;;;;;5057509;28;20421;-80
2023/10/27 07:08:44;;;;;;;0.73;0.20;;;;;;;;;;5057277;28;20389;-80
2023/10/27 07:11:10;;;;;;;1.20;0.30;;;;;;;;;;5058444;28;20881;-80
2023/10/27 07:13:36;;;;;;;1.00;0.50;;;;;;;;;;5059061;28;20386;-80
2023/10/27 07:16:02;;;;;;;0.63;0.40;;;;;;;;;;5058957;28;20406;-81
2023/10/27 07:18:29;;;;;;;0.90;0.32;;;;;;;;;;5058089;28;20391;-81
2023/10/27 07:20:56;;;;;;;0.68;0.28;;;;;;;;;;5057624;28;20382;-80
2023/10/27 07:23:22;;;;;;;1.05;0.40;;;;;;;;;;5057523;28;20382;-80
2023/10/27 07:25:48;;;;;;;1.20;0.43;;;;;;;;;;5057670;28;20425;-81
2023/10/27 07:28:14;;;;;;;0.60;0.40;;;;;;;;;;5057594;28;20863;-80
2023/10/27 07:30:40;;;;;;;1.13;0.30;;;;;;;;;;5057146;28;20377;-80
2023/10/27 07:33:06;;;;;;;1.40;0.43;;;;;;;;;;5057964;28;20476;-80
2023/10/27 07:35:32;;;;;;;0.50;0.30;;;;;;;;;;5058653;28;20413;-80
2023/10/27 07:37:58;;;;;;;1.40;0.37;;;;;;;;;;5059212;28;20839;-80
2023/10/27 07:40:25;;;;;;;2.25;0.50;;;;;;;;;;5057909;28;20385;-80
2023/10/27 07:42:51;;;;;;;1.40;0.40;;;;;;;;;;5057837;28;20837;-81
2023/10/27 07:45:17;;;;;;;1.25;0.40;;;;;;;;;;5053863;28;20406;-80
2023/10/27 07:47:43;;;;;;;1.58;0.30;;;;;;;;;;5054065;28;20420;-80
2023/10/27 07:50:10;;;;;;;2.67;0.65;;;;;;;;;;5053449;28;20479;-80
2023/10/27 07:52:37;;;;;;;2.42;0.47;;;;;;;;;;5053552;28;20704;-80
2023/10/27 07:55:03;;;;;;;2.58;0.70;;;;;;;;;;5058660;28;20831;-80
2023/10/27 07:57:32;;;;;;;1.37;0.50;;;;;;;;;;5053306;28;20904;-82
2023/10/27 07:59:58;;;;;;;2.50;0.70;;;;;;;;;;5054058;28;20388;-81
2023/10/27 08:02:24;;;;;;;2.22;0.70;;;;;;;;;;5055956;28;20385;-80
2023/10/27 08:04:50;;;;;;;1.33;0.60;;;;;;;;;;5054936;28;21198;-81
2023/10/27 08:07:16;;;;;;;1.67;0.50;;;;;;;;;;5036731;28;20448;-81
2023/10/27 08:09:42;;;;;;;1.52;0.60;;;;;;;;;;5056337;28;20424;-81
2023/10/27 08:12:08;;;;;;;1.80;0.60;;;;;;;;;;5056717;28;20874;-81
2023/10/27 08:14:35;;;;;;;1.88;0.70;;;;;;;;;;5054863;28;20475;-80
2023/10/27 08:17:00;;;;;;;1.40;0.40;;;;;;;;;;5055168;28;20382;-81
2023/10/27 08:19:26;;;;;;;2.78;0.70;;;;;;;;;;5057089;28;20530;-80
2023/10/27 08:21:52;;;;;;;2.10;0.60;;;;;;;;;;5056218;28;20405;-80
2023/10/27 08:24:18;;;;;;;1.88;0.70;;;;;;;;;;5057235;28;20413;-80
2023/10/27 08:26:44;;;;;;;1.63;0.90;;;;;;;;;;5057293;28;20453;-80
2023/10/27 08:29:11;;;;;;;2.97;0.60;;;;;;;;;;5043804;28;20391;-80
2023/10/27 08:31:37;;;;;;;2.40;0.70;;;;;;;;;;5054377;28;20381;-80
2023/10/27 08:34:04;;;;;;;2.08;0.80;;;;;;;;;;5057889;28;20388;-80
2023/10/27 08:36:30;;;;;;;1.77;0.60;;;;;;;;;;5057190;28;20434;-80
2023/10/27 08:38:57;;;;;;;1.85;0.60;;;;;;;;;;5039971;28;20386;-80
2023/10/27 08:41:25;;;;;;;1.92;0.60;;;;;;;;;;5060260;28;20392;-80
2023/10/27 08:43:51;;;;;;;3.28;0.80;;;;;;;;;;5058700;28;20409;-80
2023/10/27 08:46:18;;;;;;;3.83;0.90;;;;;;;;;;5057127;28;20416;-80
2023/10/27 08:48:44;;;;;;;2.90;0.70;;;;;;;;;;5054696;28;20385;-81
2023/10/27 08:51:10;;;;;;;2.53;0.80;;;;;;;;;;5048395;28;20860;-81
2023/10/27 08:53:40;;;;;;;2.42;0.90;;;;;;;;;;5054837;28;20394;-81
2023/10/27 08:56:12;;;;;;;2.60;0.80;;;;;;;;;;5040461;28;20392;-81
2023/10/27 08:58:38;;;;;;;3.42;0.70;;;;;;;;;;5055303;28;20389;-81
2023/10/27 09:01:04;;;;;;;2.22;0.75;;;;;;;;;;5054678;28;20382;-81
2023/10/27 09:03:31;;;;;;;2.75;0.77;;;;;;;;;;5053984;28;20877;-81
2023/10/27 09:05:58;;;;;;;1.70;0.82;;;;;;;;;;5056481;28;20449;-81
2023/10/27 09:08:24;;;;;;;1.60;0.50;;;;;;;;;;5056875;28;20381;-82
2023/10/27 09:10:50;;;;;;;1.35;0.60;;;;;;;;;;5055205;28;20735;-81
2023/10/27 09:13:23;;;;;;;3.25;0.70;;;;;;;;;;5054441;28;20385;-81
2023/10/27 09:15:50;;;;;;;3.47;0.73;;;;;;;;;;5055790;28;20811;-80
2023/10/27 09:18:16;;;;;;;2.53;0.65;;;;;;;;;;5037714;28;20468;-82
2023/10/27 09:20:52;;;;;;;4.97;0.90;;;;;;;;;;5055122;28;20415;-81
2023/10/27 09:23:19;;;;;;;2.20;0.60;;;;;;;;;;5036473;28;20891;-80
2023/10/27 09:25:46;;;;;;;3.55;0.90;;;;;;;;;;5055285;28;20417;-81
2023/10/27 09:28:12;;;;;;;2.22;0.60;;;;;;;;;;5055485;28;20503;-80
2023/10/27 09:30:39;;;;;;;3.15;0.80;;;;;;;;;;5055944;28;20385;-81
2023/10/27 09:33:26;;;;;;;2.67;0.80;;;;;;;;;;5053445;28;20858;-81
2023/10/27 09:35:52;;;;;;;2.47;0.75;;;;;;;;;;5056125;28;20467;-81
2023/10/27 09:38:20;;;;;;;3.63;0.77;;;;;;;;;;5055293;28;20389;-81
2023/10/27 09:40:47;;;;;;;2.38;0.82;;;;;;;;;;5053879;28;20393;-81
2023/10/27 09:43:16;;;;;;;3.07;0.83;;;;;;;;;;5054864;28;20411;-80
2023/10/27 09:45:52;;;;;;;2.17;0.68;;;;;;;;;;5054755;28;20902;-80
2023/10/27 09:48:22;;;;;;;2.70;0.70;;;;;;;;;;5056214;28;20443;-80
2023/10/27 09:50:49;;;;;;;3.50;0.70;;;;;;;;;;5056148;28;20708;-80
2023/10/27 09:53:15;;;;;;;3.05;1.05;;;;;;;;;;5055946;28;20793;-81
2023/10/27 09:55:42;;;;;;;2.75;0.88;;;;;;;;;;5056280;28;20385;-80
2023/10/27 09:58:09;;;;;;;3.30;0.80;;;;;;;;;;5056689;28;20381;-80
2023/10/27 10:00:35;;;;;;;2.42;0.77;;;;;;;;;;5055801;28;20770;-80
2023/10/27 10:03:02;;;;;;;2.97;1.05;;;;;;;;;;5055027;28;20743;-82
2023/10/27 10:05:29;;;;;;;2.83;0.80;;;;;;;;;;5055025;28;20488;-80
2023/10/27 10:08:06;;;;;;;1.95;1.00;;;;;;;;;;5054786;28;20457;-81
2023/10/27 10:10:33;;;;;;;1.60;0.68;;;;;;;;;;5059120;28;20377;-80
2023/10/27 10:13:02;;;;;;;1.88;0.63;;;;;;;;;;5057486;28;20385;-81
2023/10/27 10:15:29;;;;;;;2.80;0.97;;;;;;;;;;5058009;28;20377;-81
2023/10/27 10:17:55;;;;;;;1.33;0.75;;;;;;;;;;5058003;28;20912;-81
2023/10/27 10:20:41;;;;;;;1.70;0.70;;;;;;;;;;5057801;28;20393;-81
2023/10/27 10:23:07;;;;;;;1.40;0.53;;;;;;;;;;5058383;28;20467;-81
2023/10/27 10:25:34;;;;;;;2.22;0.60;;;;;;;;;;5057678;28;20515;-83
2023/10/27 10:28:08;;;;;;;1.42;0.35;;;;;;;;;;5057514;28;20381;-81
2023/10/27 10:30:42;;;;;;;1.17;0.50;;;;;;;;;;5055778;28;20428;-81
2023/10/27 10:33:14;;;;;;;1.88;0.50;;;;;;;;;;5056659;28;20401;-79
2023/10/27 10:35:40;;;;;;;2.05;0.60;;;;;;;;;;5056734;28;20404;-80
2023/10/27 10:38:24;;;;;;;1.63;0.52;;;;;;;;;;5055845;28;20389;-80
2023/10/27 10:40:50;;;;;;;1.75;0.40;;;;;;;;;;5054696;28;20381;-79
2023/10/27 10:43:20;;;;;;;1.38;0.22;;;;;;;;;;5059314;28;20395;-80
2023/10/27 10:45:50;;;;;;;1.80;0.30;;;;;;;;;;5053754;28;20420;-79
2023/10/27 10:48:18;;;;;;;1.27;0.30;;;;;;;;;;5047099;28;20409;-79
2023/10/27 10:50:44;;;;;;;0.50;0.20;;;;;;;;;;5052652;28;20382;-80
2023/10/27 10:53:10;;;;;;;0.80;0.20;;;;;;;;;;5053436;28;20528;-80
2023/10/27 10:55:37;;;;;;;2.07;0.30;;;;;;;;;;5043021;28;20391;-80
2023/10/27 10:58:02;;;;;;;0.88;0.25;;;;;;;;;;5046578;28;20386;-80
2023/10/27 11:00:38;;;;;;;0.43;0.22;;;;;;;;;;5045630;28;20451;-80
2023/10/27 11:03:07;;;;;;;1.25;0.25;;;;;;;;;;5045081;28;21582;-80
2023/10/27 11:05:33;;;;;;;0.63;0.20;;;;;;;;;;5053224;28;20755;-79
2023/10/27 11:07:59;;;;;;;1.08;0.28;;;;;;;;;;5055493;28;20468;-81
2023/10/27 11:10:25;;;;;;;0.45;0.22;;;;;;;;;;5054163;28;20878;-80
2023/10/27 11:12:51;;;;;;;2.05;0.30;;;;;;;;;;5052785;28;20390;-80
2023/10/27 11:15:36;;;;;;;0.68;0.20;;;;;;;;;;5033320;28;20399;-80
2023/10/27 11:18:06;;;;;;;0.70;0.20;;;;;;;;;;5045868;28;20452;-80
2023/10/27 11:20:35;;;;;;;0.90;0.30;;;;;;;;;;5052063;28;20401;-81
2023/10/27 11:23:11;;;;;;;0.85;0.30;;;;;;;;;;5049509;28;20478;-81
2023/10/27 11:25:39;;;;;;;0.68;0.30;;;;;;;;;;5052852;28;20434;-80
2023/10/27 11:28:17;;;;;;;0.82;0.25;;;;;;;;;;5046751;28;20390;-81
2023/10/27 11:30:43;;;;;;;1.95;0.50;;;;;;;;;;5032399;28;20459;-81
2023/10/27 11:33:09;;;;;;;1.10;0.30;;;;;;;;;;5043635;28;20712;-80
2023/10/27 11:35:45;;;;;;;0.38;0.20;;;;;;;;;;5045045;28;20385;-80
2023/10/27 11:38:12;;;;;;;0.68;0.20;;;;;;;;;;5048932;28;20712;-80
2023/10/27 11:40:38;;;;;;;0.80;0.20;;;;;;;;;;5050496;28;20851;-80
2023/10/27 11:43:04;;;;;;;0.52;0.20;;;;;;;;;;5054173;28;20378;-80
2023/10/27 11:45:30;;;;;;;0.20;0.10;;;;;;;;;;5055814;28;20425;-81
2023/10/27 11:47:56;;;;;;;0.50;0.20;;;;;;;;;;5033968;28;20720;-79
2023/10/27 11:50:22;;;;;;;0.20;0.20;;;;;;;;;;5045459;28;20409;-81
2023/10/27 11:52:48;;;;;;;0.93;0.20;;;;;;;;;;5047499;28;20389;-80
2023/10/27 11:55:14;;;;;;;1.55;0.20;;;;;;;;;;5040072;28;20756;-80
2023/10/27 11:57:40;;;;;;;0.43;0.20;;;;;;;;;;5043634;28;20388;-80
2023/10/27 12:00:08;;;;;;;0.93;0.20;;;;;;;;;;5055185;28;20468;-80
2023/10/27 12:02:35;;;;;;;0.50;0.20;;;;;;;;;;5054376;28;20844;-80
2023/10/27 12:05:00;;;;;;;0.60;0.22;;;;;;;;;;5053677;28;20797;-81
2023/10/27 12:07:26;;;;;;;0.68;0.30;;;;;;;;;;5055017;28;20384;-81
2023/10/27 12:09:52;;;;;;;1.27;0.40;;;;;;;;;;5049396;28;20399;-79
2023/10/27 12:12:21;;;;;;;1.23;0.43;;;;;;;;;;5056047;28;20393;-80
2023/10/27 12:14:47;;;;;;;0.98;0.20;;;;;;;;;;5055183;28;20898;-80
2023/10/27 12:17:13;;;;;;;1.60;0.35;;;;;;;;;;5055245;28;20424;-79
2023/10/27 12:19:39;;;;;;;1.10;0.30;;;;;;;;;;5053434;28;20412;-80
2023/10/27 12:22:05;;;;;;;0.70;0.40;;;;;;;;;;5055501;28;20401;-81
2023/10/27 12:24:33;;;;;;;0.80;0.40;;;;;;;;;;5050534;28;20457;-80
2023/10/27 12:26:59;;;;;;;1.20;0.30;;;;;;;;;;5052190;28;20385;-80
2023/10/27 12:29:29;;;;;;;1.48;0.40;;;;;;;;;;5054672;28;20515;-79
2023/10/27 12:31:55;;;;;;;0.65;0.32;;;;;;;;;;5054813;28;20381;-80
2023/10/27 12:34:21;;;;;;;1.63;0.60;;;;;;;;;;5055149;28;20496;-80
2023/10/27 12:36:47;;;;;;;0.70;0.50;;;;;;;;;;5055539;28;20472;-80
2023/10/27 12:39:15;;;;;;;0.75;0.30;;;;;;;;;;5055183;28;20413;-80
2023/10/27 12:41:41;;;;;;;0.77;0.22;;;;;;;;;;5054758;28;20385;-80
2023/10/27 12:44:07;;;;;;;0.60;0.28;;;;;;;;;;5054715;28;20396;-80
2023/10/27 12:46:33;;;;;;;0.95;0.30;;;;;;;;;;5055352;28;20408;-80
2023/10/27 12:49:01;;;;;;;0.65;0.30;;;;;;;;;;5055336;28;20385;-82
2023/10/27 12:51:27;;;;;;;0.60;0.20;;;;;;;;;;5054307;28;20444;-79
2023/10/27 12:53:54;;;;;;;0.85;0.32;;;;;;;;;;5054406;28;20436;-79
2023/10/27 12:56:20;;;;;;;0.93;0.20;;;;;;;;;;5054796;28;20456;-80
2023/10/27 12:58:46;;;;;;;0.75;0.30;;;;;;;;;;5050612;28;20389;-80
2023/10/27 13:01:12;;;;;;;1.10;0.20;;;;;;;;;;5053801;28;20407;-78
2023/10/27 13:03:39;;;;;;;0.77;0.30;;;;;;;;;;5054524;28;20439;-80
2023/10/27 13:06:05;;;;;;;0.45;0.20;;;;;;;;;;5054373;28;20480;-79
2023/10/27 13:08:31;;;;;;;1.15;0.20;;;;;;;;;;5054177;28;20775;-79
2023/10/27 13:11:02;;;;;;;0.45;0.20;;;;;;;;;;5054185;28;20389;-80
2023/10/27 13:13:29;;;;;;;0.60;0.20;;;;;;;;;;5055338;28;20377;-80
2023/10/27 13:15:55;;;;;;;0.50;0.20;;;;;;;;;;5054809;28;20384;-79
2023/10/27 13:18:21;;;;;;;0.70;0.20;;;;;;;;;;5054114;28;20385;-79
2023/10/27 13:20:48;;;;;;;0.70;0.20;;;;;;;;;;5054003;28;20416;-79
2023/10/27 13:23:14;;;;;;;1.00;0.20;;;;;;;;;;5054118;28;20409;-79
2023/10/27 13:25:40;;;;;;;0.70;0.22;;;;;;;;;;5045270;28;20878;-79
2023/10/27 13:28:08;;;;;;;1.05;0.40;;;;;;;;;;5053879;28;20389;-79
2023/10/27 13:30:34;;;;;;;1.20;0.20;;;;;;;;;;5054445;28;20393;-79
2023/10/27 13:33:02;;;;;;;0.27;0.10;;;;;;;;;;5054456;28;20377;-79
2023/10/27 13:35:29;;;;;;;1.30;0.30;;;;;;;;;;5054233;28;20392;-79
2023/10/27 13:38:04;;;;;;;0.73;0.20;;;;;;;;;;5053981;28;20397;-79
2023/10/27 13:40:35;;;;;;;0.73;0.20;;;;;;;;;;5053107;28;20378;-79
2023/10/27 13:43:00;;;;;;;1.23;0.20;;;;;;;;;;5054175;28;20393;-79
2023/10/27 13:45:26;;;;;;;0.90;0.30;;;;;;;;;;5054319;28;20532;-78
2023/10/27 13:47:52;;;;;;;1.83;0.30;;;;;;;;;;5046368;28;20509;-79
2023/10/27 13:50:20;;;;;;;0.65;0.20;;;;;;;;;;5051190;28;20858;-79
2023/10/27 13:52:46;;;;;;;0.90;0.20;;;;;;;;;;5056034;28;20801;-78
2023/10/27 13:55:12;;;;;;;0.60;0.20;;;;;;;;;;5056272;28;20851;-78
2023/10/27 13:57:38;;;;;;;0.80;0.30;;;;;;;;;;5056202;28;20431;-78
2023/10/27 14:00:09;;;;;;;0.60;0.20;;;;;;;;;;5058429;28;20388;-78
2023/10/27 14:02:38;;;;;;;0.70;0.30;;;;;;;;;;5057558;28;20472;-78
2023/10/27 14:05:04;;;;;;;0.85;0.40;;;;;;;;;;5046686;28;20410;-79
2023/10/27 14:07:30;;;;;;;1.40;0.20;;;;;;;;;;5051623;28;20813;-79
2023/10/27 14:09:56;;;;;;;0.90;0.30;;;;;;;;;;5054902;28;20389;-79
2023/10/27 14:12:22;;;;;;;0.63;0.30;;;;;;;;;;5055124;28;20381;-79
2023/10/27 14:14:48;;;;;;;1.42;0.22;;;;;;;;;;5055926;28;20417;-79
2023/10/27 14:17:14;;;;;;;0.70;0.20;;;;;;;;;;5055852;28;20385;-79
2023/10/27 14:19:40;;;;;;;1.05;0.30;;;;;;;;;;5055435;28;20969;-79
2023/10/27 14:22:06;;;;;;;0.50;0.27;;;;;;;;;;5056367;28;20382;-80
2023/10/27 14:24:33;;;;;;;1.10;0.20;;;;;;;;;;5055664;28;20767;-79
2023/10/27 14:26:59;;;;;;;0.70;0.17;;;;;;;;;;5056050;28;20385;-79
2023/10/27 14:29:25;;;;;;;1.20;0.30;;;;;;;;;;5055975;28;20388;-79
2023/10/27 14:31:51;;;;;;;2.63;0.37;;;;;;;;;;5056505;28;20501;-79
2023/10/27 14:34:17;;;;;;;0.70;0.30;;;;;;;;;;5056252;28;20389;-80
2023/10/27 14:36:46;;;;;;;0.68;0.30;;;;;;;;;;5055358;28;20382;-81
2023/10/27 14:39:13;;;;;;;0.63;0.30;;;;;;;;;;5056308;28;20424;-79
2023/10/27 14:41:40;;;;;;;1.27;0.30;;;;;;;;;;5055738;28;20413;-80